Mocksville, North Carolina
Current Conditions -  °F | °C
As of 6:35 PM on Saturday 25 Oct 2014 (Local Time) from KEXX Reporting Station
Clear Clear  
Wind Chill: 64°   Ceiling: Unl
Heat Index: 64°   Visibility: 10mi
Dew Point: 39°   Wind: 0mph
Humidity: 39%   Direction: NA
Pressure: 29.93"   Gusts: NA
Location:  35.89°N, 80.56°W
Report Text: KEXX 252235Z AUTO 00000KT 10SM CLR 18/04 A2993 RMK AO2 T01800038
Loading
Personal Weather Stations






























Interactive Weather Map
Tropical Storm Tracking
New forecast layout! Learn more

10-Day Weather Forecast

Advertisements
Track Severe Weather on mobile